Shin'ai Maru — JD3307 — position and weather

sailwx.info

Track history (hours):
 
Tides and Currents Weather Stations Pressure Air Temp Water Temp Dewpoint Dewpoint Depression Visibility Wind Speed Wind Dir Waves Ship Positions

Shin'ai Maru

Last reported at 2018-Feb-21 09:00 UTC. Time now 2018-Feb-21 09:10 UTC.
Position N 34°45' E 136°47'.

Length 74 m; draft 4.5 m.

Type: Cargo ship. MMSI: 431003187.

Date/timePositionNaut miles runAvg speedWind from/ knotsBaromVisibWave heightAir tempDewpointWater temp
2018-Feb-21 09:00N 34°45' E 136°47'713.1
2018-Feb-21 08:30N 34°51' E 136°46'612.9
2018-Feb-21 08:00N 34°58' E 136°48'612.7
2018-Feb-21 07:30N 35°03' E 136°52'1 1.8
2018-Feb-21 07:00N 35°03' E 136°53'0 0.0
2018-Feb-21 06:28N 35°03' E 136°53'0 0.0
2018-Feb-21 05:58N 35°03' E 136°53'0 0.0
2018-Feb-21 05:28N 35°03' E 136°53'0 0.0
2018-Feb-21 04:58N 35°03' E 136°53'0 0.0
2018-Feb-21 04:28N 35°03' E 136°53'0 0.0
2018-Feb-21 03:58N 35°03' E 136°53'0 0.0
2018-Feb-21 03:25N 35°03' E 136°53'0 0.0
2018-Feb-21 02:58N 35°03' E 136°53'0 0.0
2018-Feb-21 02:28N 35°03' E 136°53'0 0.0
2018-Feb-21 01:58N 35°03' E 136°53'0 0.0
2018-Feb-21 01:28N 35°03' E 136°53'0 0.0
2018-Feb-21 00:58N 35°03' E 136°53'0 0.0
2018-Feb-21 00:28N 35°03' E 136°53'0 0.0
2018-Feb-20 23:58N 35°03' E 136°53'0 0.0
2018-Feb-20 23:28N 35°03' E 136°53'0 0.0
2018-Feb-20 23:00N 35°03' E 136°53'2 3.3
2018-Feb-20 22:30N 35°02' E 136°51'4 8.5
2018-Feb-20 22:00N 34°59' E 136°48'0 0.2
2018-Feb-20 21:29N 34°59' E 136°48'0 0.0
2018-Feb-20 20:59N 34°59' E 136°48'0 0.0
2018-Feb-20 20:29N 34°59' E 136°48'0 0.0
2018-Feb-20 19:59N 34°59' E 136°48'0 0.0
2018-Feb-20 19:29N 34°59' E 136°48'0 0.1
2018-Feb-20 18:59N 34°59' E 136°48'0 0.0
2018-Feb-20 18:26N 34°59' E 136°48'0 0.0
2018-Feb-20 17:59N 34°59' E 136°48'3 6.5
2018-Feb-20 17:31N 34°56' E 136°47'612.3
2018-Feb-20 17:00N 34°50' E 136°48'104 8.3
2018-Feb-20 04:22N 33°51' E 135°03'512.8
2018-Feb-20 04:00N 33°55' E 135°01'713.5
2018-Feb-20 03:29N 34°02' E 134°60'613.1
2018-Feb-20 03:00N 34°08' E 134°59'612.8
2018-Feb-20 02:31N 34°14' E 134°59'511.0
2018-Feb-20 02:00N 34°20' E 134°59'612.2
2018-Feb-20 01:30N 34°25' E 135°02'612.4
2018-Feb-20 01:00N 34°31' E 135°06'713.4
2018-Feb-20 00:30N 34°37' E 135°10'3 6.7
2018-Feb-19 23:59N 34°40' E 135°12'0 0.0
2018-Feb-19 23:29N 34°40' E 135°12'0 0.0
2018-Feb-19 22:59N 34°40' E 135°12'0 0.0
2018-Feb-19 22:29N 34°40' E 135°12'0 0.0
2018-Feb-19 21:59N 34°40' E 135°12'0 0.0
2018-Feb-19 21:24N 34°40' E 135°12'0 0.1
2018-Feb-19 20:59N 34°40' E 135°12'0 0.0
2018-Feb-19 20:29N 34°40' E 135°12'0 0.0
2018-Feb-19 20:00N 34°40' E 135°12'0 0.0
2018-Feb-19 19:29N 34°40' E 135°12'0 0.1
2018-Feb-19 18:59N 34°40' E 135°12'0 0.0
2018-Feb-19 18:29N 34°40' E 135°12'0 0.0
2018-Feb-19 17:59N 34°40' E 135°12'0 0.0
2018-Feb-19 17:29N 34°40' E 135°12'0 0.0
2018-Feb-19 16:59N 34°40' E 135°12'0 0.0
2018-Feb-19 16:29N 34°40' E 135°12'0 0.1
2018-Feb-19 15:59N 34°40' E 135°12'0 0.1
2018-Feb-19 15:29N 34°40' E 135°12'0 0.7
2018-Feb-19 15:00N 34°39' E 135°12'510.9
2018-Feb-19 14:30N 34°36' E 135°07'510.1
2018-Feb-19 14:00N 34°37' E 135°01'610.8
2018-Feb-19 13:30N 34°37' E 134°54'510.8
2018-Feb-19 13:00N 34°40' E 134°49'3 0.2
2018-Feb-18 22:20N 34°44' E 134°49'2 4.9
2018-Feb-18 22:00N 34°42' E 134°48'2 3.7
2018-Feb-18 21:27N 34°43' E 134°51'0 0.0
2018-Feb-18 20:33N 34°43' E 134°51'0 0.0
2018-Feb-18 20:27N 34°43' E 134°51'0 0.0
2018-Feb-18 19:57N 34°43' E 134°51'0 0.0
2018-Feb-18 19:27N 34°43' E 134°51'0 0.0
2018-Feb-18 18:51N 34°43' E 134°51'0 0.0
2018-Feb-18 18:27N 34°43' E 134°51'0 0.0
2018-Feb-18 17:57N 34°43' E 134°51'0 0.0
2018-Feb-18 17:27N 34°43' E 134°51'0 0.0
2018-Feb-18 16:51N 34°43' E 134°51'0 0.0
2018-Feb-18 16:15N 34°43' E 134°51'0 0.0
2018-Feb-18 15:57N 34°43' E 134°51'0 0.0
2018-Feb-18 15:27N 34°43' E 134°51'0 0.0
2018-Feb-18 14:57N 34°43' E 134°51'0 0.0
2018-Feb-18 13:51N 34°43' E 134°51'0 0.0
2018-Feb-18 13:21N 34°43' E 134°51'0 0.0
2018-Feb-18 13:00N 34°43' E 134°51'2 4.9
2018-Feb-18 12:30N 34°41' E 134°49'713.9
2018-Feb-18 12:00N 34°37' E 134°57'714.1
2018-Feb-18 11:30N 34°35' E 135°05'713.9
2018-Feb-18 11:01N 34°28' E 135°03'713.7
2018-Feb-18 10:31N 34°22' E 135°01'713.3
2018-Feb-18 10:00N 34°15' E 134°59'712.8
2018-Feb-18 09:29N 34°09' E 135°00'612.7
2018-Feb-18 09:00N 34°03' E 135°01'97 7.6
2018-Feb-17 20:17N 34°40' E 136°50'312.9
2018-Feb-17 20:00N 34°43' E 136°48'713.1
2018-Feb-17 19:30N 34°50' E 136°46'713.2
2018-Feb-17 19:01N 34°56' E 136°46'612.1
2018-Feb-17 18:31N 35°01' E 136°51'1 1.1
2018-Feb-17 17:59N 35°01' E 136°52'0 0.0
2018-Feb-17 17:29N 35°01' E 136°52'0 0.0
2018-Feb-17 16:59N 35°01' E 136°52'0 0.0
2018-Feb-17 16:29N 35°01' E 136°52'0 0.0
2018-Feb-17 15:59N 35°01' E 136°52'0 0.0
2018-Feb-17 15:29N 35°01' E 136°52'0 0.0
2018-Feb-17 14:59N 35°01' E 136°52'0 0.0
2018-Feb-17 14:29N 35°01' E 136°52'0 0.0
2018-Feb-17 13:59N 35°01' E 136°52'0 0.0
2018-Feb-17 13:29N 35°01' E 136°52'0 0.0
2018-Feb-17 12:59N 35°01' E 136°52'0 0.0
2018-Feb-17 12:29N 35°01' E 136°52'0 0.0
2018-Feb-17 11:56N 35°01' E 136°52'0 0.7
2018-Feb-17 11:30N 35°01' E 136°51'1 1.0
2018-Feb-17 10:58N 35°01' E 136°51'0 0.0
2018-Feb-17 10:28N 35°01' E 136°51'0 0.0
2018-Feb-17 09:58N 35°01' E 136°51'0 0.0
2018-Feb-17 09:28N 35°01' E 136°51'0 0.0
2018-Feb-17 08:58N 35°01' E 136°51'0 0.0
2018-Feb-17 08:28N 35°01' E 136°51'0 0.0
2018-Feb-17 07:58N 35°01' E 136°51'0 0.0
2018-Feb-17 07:28N 35°01' E 136°51'1 3.1
2018-Feb-17 07:00N 34°60' E 136°50'511.0
2018-Feb-17 06:30N 34°55' E 136°47'611.4
2018-Feb-17 06:01N 34°49' E 136°48'104 8.0
2018-Feb-16 17:02N 33°49' E 135°05'213.3
2018-Feb-16 16:53N 33°51' E 135°04'513.3
2018-Feb-16 16:30N 33°55' E 135°01'713.7
2018-Feb-16 16:00N 34°02' E 135°00'713.5
2018-Feb-16 15:31N 34°09' E 134°59'713.6
2018-Feb-16 15:01N 34°16' E 134°58'713.4
2018-Feb-16 14:30N 34°22' E 134°59'612.9
2018-Feb-16 14:00N 34°29' E 135°01'612.4
2018-Feb-16 13:30N 34°35' E 135°03'5 9.2
2018-Feb-16 13:00N 34°36' E 134°58'510.9
2018-Feb-16 12:30N 34°38' E 134°51'4 8.6
2018-Feb-16 12:00N 34°43' E 134°51'0 0.0
2018-Feb-16 03:00N 34°43' E 134°51'0 0.0
2018-Feb-16 01:15N 34°43' E 134°51'1 3.7
2018-Feb-16 01:00N 34°42' E 134°50'2 0.2
2018-Feb-15 13:12N 34°43' E 134°49'2 9.0
2018-Feb-15 13:00N 34°42' E 134°47'1 0.3
2018-Feb-15 09:12N 34°42' E 134°45'0 0.0
2018-Feb-15 08:48N 34°42' E 134°45'0 0.0
2018-Feb-15 08:27N 34°42' E 134°45'0 0.0
2018-Feb-15 07:54N 34°42' E 134°45'0 0.1
2018-Feb-15 07:30N 34°42' E 134°45'0 0.0
2018-Feb-15 07:00N 34°42' E 134°45'3 5.6
2018-Feb-15 06:30N 34°40' E 134°48'611.4
2018-Feb-15 06:00N 34°38' E 134°54'611.4
2018-Feb-15 05:30N 34°38' E 135°01'510.0
2018-Feb-15 05:00N 34°34' E 135°05'612.5
2018-Feb-15 04:30N 34°28' E 135°04'612.6
2018-Feb-15 04:00N 34°22' E 135°02'612.0
2018-Feb-15 03:30N 34°17' E 134°59'712.8
2018-Feb-15 02:59N 34°10' E 135°00'613.0
2018-Feb-15 02:30N 34°04' E 135°01'140 9.7
2018-Feb-14 12:04N 34°27' E 137°49'412.3
2018-Feb-14 11:44N 34°28' E 137°53'312.6
2018-Feb-14 11:28N 34°29' E 137°57'612.2
2018-Feb-14 11:00N 34°30' E 138°04'811.4
2018-Feb-14 10:19N 34°32' E 138°13'411.5
2018-Feb-14 09:58N 34°34' E 138°18'712.4
2018-Feb-14 09:26N 34°39' E 138°22'612.4
2018-Feb-14 08:59N 34°43' E 138°27'511.6
2018-Feb-14 08:30N 34°48' E 138°30'611.4
2018-Feb-14 08:00N 34°53' E 138°33'511.0
2018-Feb-14 07:30N 34°58' E 138°36'5 9.9
2018-Feb-14 07:00N 35°03' E 138°39'5 9.3
2018-Feb-14 06:30N 35°07' E 138°41'2 3.7
2018-Feb-14 06:00N 35°09' E 138°42'0 0.0
2018-Feb-14 05:30N 35°09' E 138°42'0 0.0
2018-Feb-14 05:00N 35°09' E 138°42'0 0.0
2018-Feb-14 04:30N 35°09' E 138°42'0 0.0
2018-Feb-14 03:59N 35°09' E 138°42'0 0.0
2018-Feb-14 03:30N 35°09' E 138°42'0 0.0
2018-Feb-14 03:00N 35°09' E 138°42'0 0.0
2018-Feb-14 02:30N 35°09' E 138°42'0 0.0
2018-Feb-14 01:59N 35°09' E 138°42'0 0.0
2018-Feb-14 01:29N 35°09' E 138°42'0 0.0
2018-Feb-14 00:57N 35°09' E 138°42'0 0.0
2018-Feb-14 00:30N 35°09' E 138°42'0 0.0
2018-Feb-14 00:00N 35°09' E 138°42'0 0.0
2018-Feb-13 23:30N 35°09' E 138°42'0 0.5
2018-Feb-13 23:00N 35°08' E 138°42'5 9.9
2018-Feb-13 22:31N 35°05' E 138°37'5 8.7
2018-Feb-13 21:58N 35°03' E 138°32'0 0.0
2018-Feb-13 21:28N 35°03' E 138°32'0 0.1
2018-Feb-13 20:58N 35°03' E 138°32'0 0.0
2018-Feb-13 20:28N 35°03' E 138°32'0 0.1
2018-Feb-13 19:58N 35°03' E 138°32'0 0.0
2018-Feb-13 19:28N 35°03' E 138°32'0 0.0
2018-Feb-13 18:58N 35°03' E 138°32'0 0.0
2018-Feb-13 18:28N 35°03' E 138°32'0 0.0
2018-Feb-13 17:58N 35°03' E 138°32'0 0.0
2018-Feb-13 17:28N 35°03' E 138°32'0 0.0
2018-Feb-13 16:58N 35°03' E 138°32'3 5.8
2018-Feb-13 16:30N 35°00' E 138°33'613.1
2018-Feb-13 16:00N 34°54' E 138°30'913.5
2018-Feb-13 15:20N 34°46' E 138°25'513.5
2018-Feb-13 14:58N 34°42' E 138°22'7012.1
2018-Feb-13 09:12N 34°36' E 136°57'212.4
2018-Feb-13 09:00N 34°39' E 136°58'812.9
2018-Feb-13 08:24N 34°46' E 136°58'512.4
2018-Feb-13 08:00N 34°51' E 136°57'4 7.0
2018-Feb-13 07:29N 34°55' E 136°59'0 0.0
2018-Feb-13 06:59N 34°55' E 136°59'0 0.0
2018-Feb-13 06:26N 34°55' E 136°59'0 0.0
2018-Feb-13 05:59N 34°55' E 136°59'0 0.0
2018-Feb-13 05:29N 34°55' E 136°59'0 0.0
2018-Feb-13 04:50N 34°55' E 136°59'0 0.0
2018-Feb-13 04:26N 34°55' E 136°59'0 0.0
2018-Feb-13 03:59N 34°55' E 136°59'0 0.0
2018-Feb-13 03:29N 34°55' E 136°59'0 0.0
2018-Feb-13 02:53N 34°55' E 136°59'0 0.0
2018-Feb-13 02:26N 34°55' E 136°59'0 0.0
2018-Feb-13 01:59N 34°55' E 136°59'0 0.0
2018-Feb-13 01:29N 34°55' E 136°59'0 0.0
2018-Feb-13 00:53N 34°55' E 136°59'0 0.0
2018-Feb-13 00:29N 34°55' E 136°59'0 0.0
2018-Feb-12 23:56N 34°55' E 136°59'0 0.0
2018-Feb-12 23:26N 34°55' E 136°59'0 0.0
2018-Feb-12 22:56N 34°55' E 136°59'0 0.0
2018-Feb-12 22:29N 34°55' E 136°59'0 0.0
2018-Feb-12 21:59N 34°55' E 136°59'0 0.0
2018-Feb-12 21:29N 34°55' E 136°59'0 0.0
2018-Feb-12 20:56N 34°55' E 136°59'0 0.0
2018-Feb-12 20:29N 34°55' E 136°59'0 0.0
2018-Feb-12 19:50N 34°55' E 136°59'0 0.0
2018-Feb-12 19:26N 34°55' E 136°59'0 0.0
2018-Feb-12 18:56N 34°55' E 136°59'0 0.0
2018-Feb-12 18:26N 34°55' E 136°59'0 0.0
2018-Feb-12 17:59N 34°55' E 136°59'0 0.0
2018-Feb-12 17:29N 34°55' E 136°59'0 0.0
2018-Feb-12 16:56N 34°55' E 136°59'0 0.0
2018-Feb-12 16:26N 34°55' E 136°59'0 0.0
2018-Feb-12 15:56N 34°55' E 136°59'0 0.0
2018-Feb-12 15:17N 34°55' E 136°59'0 0.0
2018-Feb-12 14:56N 34°55' E 136°59'0 0.1
2018-Feb-12 14:29N 34°55' E 136°59'0 0.1
2018-Feb-12 13:59N 34°55' E 136°59'0 0.0
2018-Feb-12 13:29N 34°55' E 136°59'0 0.0
2018-Feb-12 12:59N 34°55' E 136°59'0 0.0
2018-Feb-12 12:29N 34°55' E 136°59'0 0.0
2018-Feb-12 11:56N 34°55' E 136°59'0 0.0
2018-Feb-12 11:26N 34°55' E 136°59'0 0.0
2018-Feb-12 10:59N 34°55' E 136°59'0 0.0
2018-Feb-12 10:20N 34°55' E 136°59'0 0.0
2018-Feb-12 09:56N 34°55' E 136°59'0 0.0
2018-Feb-12 09:26N 34°55' E 136°59'0 0.0
2018-Feb-12 08:59N 34°55' E 136°59'0 0.0
2018-Feb-12 08:30N 34°55' E 136°59'0 0.5
2018-Feb-12 08:00N 34°55' E 136°58'0 0.2
2018-Feb-12 07:07N 34°55' E 136°58'0 0.0
2018-Feb-12 06:55N 34°55' E 136°58'0 0.0
2018-Feb-12 06:13N 34°55' E 136°58'0 0.0
2018-Feb-12 05:52N 34°55' E 136°58'0 0.0
2018-Feb-12 05:19N 34°55' E 136°58'0 0.0
2018-Feb-12 04:49N 34°55' E 136°58'0 0.0
2018-Feb-12 04:25N 34°55' E 136°58'0 0.0
2018-Feb-12 03:55N 34°55' E 136°58'0 0.0
2018-Feb-12 03:19N 34°55' E 136°58'0 0.0
2018-Feb-12 02:55N 34°55' E 136°58'0 0.4
2018-Feb-12 02:29N 34°55' E 136°58'611.9
2018-Feb-12 01:59N 34°49' E 136°57'110 8.7
2018-Feb-11 13:22N 33°51' E 135°03'513.4
2018-Feb-11 13:00N 33°55' E 135°01'713.4
2018-Feb-11 12:30N 34°02' E 135°00'713.3
2018-Feb-11 12:00N 34°08' E 134°59'713.5
2018-Feb-11 11:31N 34°15' E 134°58'611.2
2018-Feb-11 11:01N 34°20' E 135°02'612.5
2018-Feb-11 10:30N 34°24' E 135°07'613.0
2018-Feb-11 10:00N 34°30' E 135°11'613.0
2018-Feb-11 09:30N 34°36' E 135°15'  
Track history (hours):
 
Tides and Currents Weather Stations Pressure Air Temp Water Temp Dewpoint Dewpoint Depression Visibility Wind Speed Wind Dir Waves Ship Positions

Shin'ai Maru

Last reported at 2018-Feb-21 09:00 UTC. Time now 2018-Feb-21 09:10 UTC.
Position N 34°45' E 136°47'.

Length 74 m; draft 4.5 m.

Type: Cargo ship. MMSI: 431003187.

Date/timePositionNaut miles runAvg speedWind from/ knotsBaromVisibWave heightAir tempDewpointWater temp
2018-Feb-21 09:00N 34°45' E 136°47'713.1
2018-Feb-21 08:30N 34°51' E 136°46'612.9
2018-Feb-21 08:00N 34°58' E 136°48'612.7
2018-Feb-21 07:30N 35°03' E 136°52'1 1.8
2018-Feb-21 07:00N 35°03' E 136°53'0 0.0
2018-Feb-21 06:28N 35°03' E 136°53'0 0.0
2018-Feb-21 05:58N 35°03' E 136°53'0 0.0
2018-Feb-21 05:28N 35°03' E 136°53'0 0.0
2018-Feb-21 04:58N 35°03' E 136°53'0 0.0
2018-Feb-21 04:28N 35°03' E 136°53'0 0.0
2018-Feb-21 03:58N 35°03' E 136°53'0 0.0
2018-Feb-21 03:25N 35°03' E 136°53'0 0.0
2018-Feb-21 02:58N 35°03' E 136°53'0 0.0
2018-Feb-21 02:28N 35°03' E 136°53'0 0.0
2018-Feb-21 01:58N 35°03' E 136°53'0 0.0
2018-Feb-21 01:28N 35°03' E 136°53'0 0.0
2018-Feb-21 00:58N 35°03' E 136°53'0 0.0
2018-Feb-21 00:28N 35°03' E 136°53'0 0.0
2018-Feb-20 23:58N 35°03' E 136°53'0 0.0
2018-Feb-20 23:28N 35°03' E 136°53'0 0.0
2018-Feb-20 23:00N 35°03' E 136°53'2 3.3
2018-Feb-20 22:30N 35°02' E 136°51'4 8.5
2018-Feb-20 22:00N 34°59' E 136°48'0 0.2
2018-Feb-20 21:29N 34°59' E 136°48'0 0.0
2018-Feb-20 20:59N 34°59' E 136°48'0 0.0
2018-Feb-20 20:29N 34°59' E 136°48'0 0.0
2018-Feb-20 19:59N 34°59' E 136°48'0 0.0
2018-Feb-20 19:29N 34°59' E 136°48'0 0.1
2018-Feb-20 18:59N 34°59' E 136°48'0 0.0
2018-Feb-20 18:26N 34°59' E 136°48'0 0.0
2018-Feb-20 17:59N 34°59' E 136°48'3 6.5
2018-Feb-20 17:31N 34°56' E 136°47'612.3
2018-Feb-20 17:00N 34°50' E 136°48'104 8.3
2018-Feb-20 04:22N 33°51' E 135°03'512.8
2018-Feb-20 04:00N 33°55' E 135°01'713.5
2018-Feb-20 03:29N 34°02' E 134°60'613.1
2018-Feb-20 03:00N 34°08' E 134°59'612.8
2018-Feb-20 02:31N 34°14' E 134°59'511.0
2018-Feb-20 02:00N 34°20' E 134°59'612.2
2018-Feb-20 01:30N 34°25' E 135°02'612.4
2018-Feb-20 01:00N 34°31' E 135°06'713.4
2018-Feb-20 00:30N 34°37' E 135°10'3 6.7
2018-Feb-19 23:59N 34°40' E 135°12'0 0.0
2018-Feb-19 23:29N 34°40' E 135°12'0 0.0
2018-Feb-19 22:59N 34°40' E 135°12'0 0.0
2018-Feb-19 22:29N 34°40' E 135°12'0 0.0
2018-Feb-19 21:59N 34°40' E 135°12'0 0.0
2018-Feb-19 21:24N 34°40' E 135°12'0 0.1
2018-Feb-19 20:59N 34°40' E 135°12'0 0.0
2018-Feb-19 20:29N 34°40' E 135°12'0 0.0
2018-Feb-19 20:00N 34°40' E 135°12'0 0.0
2018-Feb-19 19:29N 34°40' E 135°12'0 0.1
2018-Feb-19 18:59N 34°40' E 135°12'0 0.0
2018-Feb-19 18:29N 34°40' E 135°12'0 0.0
2018-Feb-19 17:59N 34°40' E 135°12'0 0.0
2018-Feb-19 17:29N 34°40' E 135°12'0 0.0
2018-Feb-19 16:59N 34°40' E 135°12'0 0.0
2018-Feb-19 16:29N 34°40' E 135°12'0 0.1
2018-Feb-19 15:59N 34°40' E 135°12'0 0.1
2018-Feb-19 15:29N 34°40' E 135°12'0 0.7
2018-Feb-19 15:00N 34°39' E 135°12'510.9
2018-Feb-19 14:30N 34°36' E 135°07'510.1
2018-Feb-19 14:00N 34°37' E 135°01'610.8
2018-Feb-19 13:30N 34°37' E 134°54'510.8
2018-Feb-19 13:00N 34°40' E 134°49'3 0.2
2018-Feb-18 22:20N 34°44' E 134°49'2 4.9
2018-Feb-18 22:00N 34°42' E 134°48'2 3.7
2018-Feb-18 21:27N 34°43' E 134°51'0 0.0
2018-Feb-18 20:33N 34°43' E 134°51'0 0.0
2018-Feb-18 20:27N 34°43' E 134°51'0 0.0
2018-Feb-18 19:57N 34°43' E 134°51'0 0.0
2018-Feb-18 19:27N 34°43' E 134°51'0 0.0
2018-Feb-18 18:51N 34°43' E 134°51'0 0.0
2018-Feb-18 18:27N 34°43' E 134°51'0 0.0
2018-Feb-18 17:57N 34°43' E 134°51'0 0.0
2018-Feb-18 17:27N 34°43' E 134°51'0 0.0
2018-Feb-18 16:51N 34°43' E 134°51'0 0.0
2018-Feb-18 16:15N 34°43' E 134°51'0 0.0
2018-Feb-18 15:57N 34°43' E 134°51'0 0.0
2018-Feb-18 15:27N 34°43' E 134°51'0 0.0
2018-Feb-18 14:57N 34°43' E 134°51'0 0.0
2018-Feb-18 13:51N 34°43' E 134°51'0 0.0
2018-Feb-18 13:21N 34°43' E 134°51'0 0.0
2018-Feb-18 13:00N 34°43' E 134°51'2 4.9
2018-Feb-18 12:30N 34°41' E 134°49'713.9
2018-Feb-18 12:00N 34°37' E 134°57'714.1
2018-Feb-18 11:30N 34°35' E 135°05'713.9
2018-Feb-18 11:01N 34°28' E 135°03'713.7
2018-Feb-18 10:31N 34°22' E 135°01'713.3
2018-Feb-18 10:00N 34°15' E 134°59'712.8
2018-Feb-18 09:29N 34°09' E 135°00'612.7
2018-Feb-18 09:00N 34°03' E 135°01'97 7.6
2018-Feb-17 20:17N 34°40' E 136°50'312.9
2018-Feb-17 20:00N 34°43' E 136°48'713.1
2018-Feb-17 19:30N 34°50' E 136°46'713.2
2018-Feb-17 19:01N 34°56' E 136°46'612.1
2018-Feb-17 18:31N 35°01' E 136°51'1 1.1
2018-Feb-17 17:59N 35°01' E 136°52'0 0.0
2018-Feb-17 17:29N 35°01' E 136°52'0 0.0
2018-Feb-17 16:59N 35°01' E 136°52'0 0.0
2018-Feb-17 16:29N 35°01' E 136°52'0 0.0
2018-Feb-17 15:59N 35°01' E 136°52'0 0.0
2018-Feb-17 15:29N 35°01' E 136°52'0 0.0
2018-Feb-17 14:59N 35°01' E 136°52'0 0.0
2018-Feb-17 14:29N 35°01' E 136°52'0 0.0
2018-Feb-17 13:59N 35°01' E 136°52'0 0.0
2018-Feb-17 13:29N 35°01' E 136°52'0 0.0
2018-Feb-17 12:59N 35°01' E 136°52'0 0.0
2018-Feb-17 12:29N 35°01' E 136°52'0 0.0
2018-Feb-17 11:56N 35°01' E 136°52'0 0.7
2018-Feb-17 11:30N 35°01' E 136°51'1 1.0
2018-Feb-17 10:58N 35°01' E 136°51'0 0.0
2018-Feb-17 10:28N 35°01' E 136°51'0 0.0
2018-Feb-17 09:58N 35°01' E 136°51'0 0.0
2018-Feb-17 09:28N 35°01' E 136°51'0 0.0
2018-Feb-17 08:58N 35°01' E 136°51'0 0.0
2018-Feb-17 08:28N 35°01' E 136°51'0 0.0
2018-Feb-17 07:58N 35°01' E 136°51'0 0.0
2018-Feb-17 07:28N 35°01' E 136°51'1 3.1
2018-Feb-17 07:00N 34°60' E 136°50'511.0
2018-Feb-17 06:30N 34°55' E 136°47'611.4
2018-Feb-17 06:01N 34°49' E 136°48'104 8.0
2018-Feb-16 17:02N 33°49' E 135°05'213.3
2018-Feb-16 16:53N 33°51' E 135°04'513.3
2018-Feb-16 16:30N 33°55' E 135°01'713.7
2018-Feb-16 16:00N 34°02' E 135°00'713.5
2018-Feb-16 15:31N 34°09' E 134°59'713.6
2018-Feb-16 15:01N 34°16' E 134°58'713.4
2018-Feb-16 14:30N 34°22' E 134°59'612.9
2018-Feb-16 14:00N 34°29' E 135°01'612.4
2018-Feb-16 13:30N 34°35' E 135°03'5 9.2
2018-Feb-16 13:00N 34°36' E 134°58'510.9
2018-Feb-16 12:30N 34°38' E 134°51'4 8.6
2018-Feb-16 12:00N 34°43' E 134°51'0 0.0
2018-Feb-16 03:00N 34°43' E 134°51'0 0.0
2018-Feb-16 01:15N 34°43' E 134°51'1 3.7
2018-Feb-16 01:00N 34°42' E 134°50'2 0.2
2018-Feb-15 13:12N 34°43' E 134°49'2 9.0
2018-Feb-15 13:00N 34°42' E 134°47'1 0.3
2018-Feb-15 09:12N 34°42' E 134°45'0 0.0
2018-Feb-15 08:48N 34°42' E 134°45'0 0.0
2018-Feb-15 08:27N 34°42' E 134°45'0 0.0
2018-Feb-15 07:54N 34°42' E 134°45'0 0.1
2018-Feb-15 07:30N 34°42' E 134°45'0 0.0
2018-Feb-15 07:00N 34°42' E 134°45'3 5.6
2018-Feb-15 06:30N 34°40' E 134°48'611.4
2018-Feb-15 06:00N 34°38' E 134°54'611.4
2018-Feb-15 05:30N 34°38' E 135°01'510.0
2018-Feb-15 05:00N 34°34' E 135°05'612.5
2018-Feb-15 04:30N 34°28' E 135°04'612.6
2018-Feb-15 04:00N 34°22' E 135°02'612.0
2018-Feb-15 03:30N 34°17' E 134°59'712.8
2018-Feb-15 02:59N 34°10' E 135°00'613.0
2018-Feb-15 02:30N 34°04' E 135°01'140 9.7
2018-Feb-14 12:04N 34°27' E 137°49'412.3
2018-Feb-14 11:44N 34°28' E 137°53'312.6
2018-Feb-14 11:28N 34°29' E 137°57'612.2
2018-Feb-14 11:00N 34°30' E 138°04'811.4
2018-Feb-14 10:19N 34°32' E 138°13'411.5
2018-Feb-14 09:58N 34°34' E 138°18'712.4
2018-Feb-14 09:26N 34°39' E 138°22'612.4
2018-Feb-14 08:59N 34°43' E 138°27'511.6
2018-Feb-14 08:30N 34°48' E 138°30'611.4
2018-Feb-14 08:00N 34°53' E 138°33'511.0
2018-Feb-14 07:30N 34°58' E 138°36'5 9.9
2018-Feb-14 07:00N 35°03' E 138°39'5 9.3
2018-Feb-14 06:30N 35°07' E 138°41'2 3.7
2018-Feb-14 06:00N 35°09' E 138°42'0 0.0
2018-Feb-14 05:30N 35°09' E 138°42'0 0.0
2018-Feb-14 05:00N 35°09' E 138°42'0 0.0
2018-Feb-14 04:30N 35°09' E 138°42'0 0.0
2018-Feb-14 03:59N 35°09' E 138°42'0 0.0
2018-Feb-14 03:30N 35°09' E 138°42'0 0.0
2018-Feb-14 03:00N 35°09' E 138°42'0 0.0
2018-Feb-14 02:30N 35°09' E 138°42'0 0.0
2018-Feb-14 01:59N 35°09' E 138°42'0 0.0
2018-Feb-14 01:29N 35°09' E 138°42'0 0.0
2018-Feb-14 00:57N 35°09' E 138°42'0 0.0
2018-Feb-14 00:30N 35°09' E 138°42'0 0.0
2018-Feb-14 00:00N 35°09' E 138°42'0 0.0
2018-Feb-13 23:30N 35°09' E 138°42'0 0.5
2018-Feb-13 23:00N 35°08' E 138°42'5 9.9
2018-Feb-13 22:31N 35°05' E 138°37'5 8.7
2018-Feb-13 21:58N 35°03' E 138°32'0 0.0
2018-Feb-13 21:28N 35°03' E 138°32'0 0.1
2018-Feb-13 20:58N 35°03' E 138°32'0 0.0
2018-Feb-13 20:28N 35°03' E 138°32'0 0.1
2018-Feb-13 19:58N 35°03' E 138°32'0 0.0
2018-Feb-13 19:28N 35°03' E 138°32'0 0.0
2018-Feb-13 18:58N 35°03' E 138°32'0 0.0
2018-Feb-13 18:28N 35°03' E 138°32'0 0.0
2018-Feb-13 17:58N 35°03' E 138°32'0 0.0
2018-Feb-13 17:28N 35°03' E 138°32'0 0.0
2018-Feb-13 16:58N 35°03' E 138°32'3 5.8
2018-Feb-13 16:30N 35°00' E 138°33'613.1
2018-Feb-13 16:00N 34°54' E 138°30'913.5
2018-Feb-13 15:20N 34°46' E 138°25'513.5
2018-Feb-13 14:58N 34°42' E 138°22'7012.1
2018-Feb-13 09:12N 34°36' E 136°57'212.4
2018-Feb-13 09:00N 34°39' E 136°58'812.9
2018-Feb-13 08:24N 34°46' E 136°58'512.4
2018-Feb-13 08:00N 34°51' E 136°57'4 7.0
2018-Feb-13 07:29N 34°55' E 136°59'0 0.0
2018-Feb-13 06:59N 34°55' E 136°59'0 0.0
2018-Feb-13 06:26N 34°55' E 136°59'0 0.0
2018-Feb-13 05:59N 34°55' E 136°59'0 0.0
2018-Feb-13 05:29N 34°55' E 136°59'0 0.0
2018-Feb-13 04:50N 34°55' E 136°59'0 0.0
2018-Feb-13 04:26N 34°55' E 136°59'0 0.0
2018-Feb-13 03:59N 34°55' E 136°59'0 0.0
2018-Feb-13 03:29N 34°55' E 136°59'0 0.0
2018-Feb-13 02:53N 34°55' E 136°59'0 0.0
2018-Feb-13 02:26N 34°55' E 136°59'0 0.0
2018-Feb-13 01:59N 34°55' E 136°59'0 0.0
2018-Feb-13 01:29N 34°55' E 136°59'0 0.0
2018-Feb-13 00:53N 34°55' E 136°59'0 0.0
2018-Feb-13 00:29N 34°55' E 136°59'0 0.0
2018-Feb-12 23:56N 34°55' E 136°59'0 0.0
2018-Feb-12 23:26N 34°55' E 136°59'0 0.0
2018-Feb-12 22:56N 34°55' E 136°59'0 0.0
2018-Feb-12 22:29N 34°55' E 136°59'0 0.0
2018-Feb-12 21:59N 34°55' E 136°59'0 0.0
2018-Feb-12 21:29N 34°55' E 136°59'0 0.0
2018-Feb-12 20:56N 34°55' E 136°59'0 0.0
2018-Feb-12 20:29N 34°55' E 136°59'0 0.0
2018-Feb-12 19:50N 34°55' E 136°59'0 0.0
2018-Feb-12 19:26N 34°55' E 136°59'0 0.0
2018-Feb-12 18:56N 34°55' E 136°59'0 0.0
2018-Feb-12 18:26N 34°55' E 136°59'0 0.0
2018-Feb-12 17:59N 34°55' E 136°59'0 0.0
2018-Feb-12 17:29N 34°55' E 136°59'0 0.0
2018-Feb-12 16:56N 34°55' E 136°59'0 0.0
2018-Feb-12 16:26N 34°55' E 136°59'0 0.0
2018-Feb-12 15:56N 34°55' E 136°59'0 0.0
2018-Feb-12 15:17N 34°55' E 136°59'0 0.0
2018-Feb-12 14:56N 34°55' E 136°59'0 0.1
2018-Feb-12 14:29N 34°55' E 136°59'0 0.1
2018-Feb-12 13:59N 34°55' E 136°59'0 0.0
2018-Feb-12 13:29N 34°55' E 136°59'0 0.0
2018-Feb-12 12:59N 34°55' E 136°59'0 0.0
2018-Feb-12 12:29N 34°55' E 136°59'0 0.0
2018-Feb-12 11:56N 34°55' E 136°59'0 0.0
2018-Feb-12 11:26N 34°55' E 136°59'0 0.0
2018-Feb-12 10:59N 34°55' E 136°59'0 0.0
2018-Feb-12 10:20N 34°55' E 136°59'0 0.0
2018-Feb-12 09:56N 34°55' E 136°59'0 0.0
2018-Feb-12 09:26N 34°55' E 136°59'0 0.0
2018-Feb-12 08:59N 34°55' E 136°59'0 0.0
2018-Feb-12 08:30N 34°55' E 136°59'0 0.5
2018-Feb-12 08:00N 34°55' E 136°58'0 0.2
2018-Feb-12 07:07N 34°55' E 136°58'0 0.0
2018-Feb-12 06:55N 34°55' E 136°58'0 0.0
2018-Feb-12 06:13N 34°55' E 136°58'0 0.0
2018-Feb-12 05:52N 34°55' E 136°58'0 0.0
2018-Feb-12 05:19N 34°55' E 136°58'0 0.0
2018-Feb-12 04:49N 34°55' E 136°58'0 0.0
2018-Feb-12 04:25N 34°55' E 136°58'0 0.0
2018-Feb-12 03:55N 34°55' E 136°58'0 0.0
2018-Feb-12 03:19N 34°55' E 136°58'0 0.0
2018-Feb-12 02:55N 34°55' E 136°58'0 0.4
2018-Feb-12 02:29N 34°55' E 136°58'611.9
2018-Feb-12 01:59N 34°49' E 136°57'110 8.7
2018-Feb-11 13:22N 33°51' E 135°03'513.4
2018-Feb-11 13:00N 33°55' E 135°01'713.4
2018-Feb-11 12:30N 34°02' E 135°00'713.3
2018-Feb-11 12:00N 34°08' E 134°59'713.5
2018-Feb-11 11:31N 34°15' E 134°58'611.2
2018-Feb-11 11:01N 34°20' E 135°02'612.5
2018-Feb-11 10:30N 34°24' E 135°07'613.0
2018-Feb-11 10:00N 34°30' E 135°11'613.0
2018-Feb-11 09:30N 34°36' E 135°15'  

Dump ship's entire track history